Time;durP1;ratioP1;P1;durP2;ratioP2;P2;SDS_P1;SDS_P2;PMS_P1;PMS_P2;Temp;Humidity;BMP_temperature;BMP_pressure;BME280_temperature;BME280_humidity;BME280_pressure;Samples;Min_cycle;Max_cycle;Signal;HPM_P1;HPM_P2
2021/01/21 00:01:02;;;;;;;37.50;21.23;;;;;;;2.73;72.66;94372.47;1798207;79;21507;-49
2021/01/21 00:03:33;;;;;;;57.08;31.23;;;;;;;2.82;72.60;94373.52;1798158;79;21055;-49
2021/01/21 00:06:02;;;;;;;43.35;24.57;;;;;;;2.90;72.41;94374.20;1798166;79;21158;-49
2021/01/21 00:08:30;;;;;;;39.18;21.48;;;;;;;2.96;72.65;94382.08;1798194;79;21067;-49
2021/01/21 00:10:59;;;;;;;34.60;18.82;;;;;;;3.08;73.00;94365.23;1798161;79;21361;-48
2021/01/21 00:13:27;;;;;;;19.98;12.75;;;;;;;3.23;73.25;94363.88;1798161;79;21586;-49
2021/01/21 00:15:56;;;;;;;8.83;7.92;;;;;;;3.45;73.50;94363.75;1798110;79;21178;-48
2021/01/21 00:18:24;;;;;;;7.78;7.00;;;;;;;3.78;73.54;94371.19;1798217;79;21050;-49
2021/01/21 00:20:53;;;;;;;8.08;7.28;;;;;;;4.23;72.98;94355.28;1798270;79;21470;-50
2021/01/21 00:23:21;;;;;;;9.73;7.87;;;;;;;4.58;72.01;94353.27;1798154;79;21153;-48
2021/01/21 00:25:50;;;;;;;7.10;6.42;;;;;;;4.87;71.17;94353.66;1798133;79;21154;-49
2021/01/21 00:28:19;;;;;;;7.83;7.03;;;;;;;5.09;70.11;94348.52;1798107;79;21118;-48
2021/01/21 00:30:47;;;;;;;7.50;6.90;;;;;;;5.24;69.54;94343.72;1798064;79;21110;-48
2021/01/21 00:33:16;;;;;;;18.37;12.10;;;;;;;5.31;68.88;94342.19;1798148;79;21070;-48
2021/01/21 00:35:45;;;;;;;19.85;12.93;;;;;;;5.32;68.36;94339.63;1798148;79;21336;-49
2021/01/21 00:38:13;;;;;;;12.68;9.38;;;;;;;5.25;68.10;94346.01;1798105;79;21075;-47
2021/01/21 00:40:42;;;;;;;14.53;11.00;;;;;;;5.18;68.24;94333.73;1798249;79;21055;-49
2021/01/21 00:43:11;;;;;;;11.70;8.28;;;;;;;5.15;68.46;94328.52;1798193;79;21058;-49
2021/01/21 00:45:39;;;;;;;10.72;7.62;;;;;;;5.20;68.46;94328.04;1798165;79;21154;-50
2021/01/21 00:48:08;;;;;;;8.78;7.53;;;;;;;5.28;68.34;94334.86;1798118;79;21427;-49
2021/01/21 00:50:38;;;;;;;10.70;8.03;;;;;;;5.34;68.24;94329.06;1801027;79;21133;-49
2021/01/21 00:53:09;;;;;;;8.95;7.50;;;;;;;5.40;68.12;94341.03;1801223;79;21175;-49
2021/01/21 00:55:38;;;;;;;10.35;7.12;;;;;;;5.43;67.71;94334.72;1801223;79;21178;-48
2021/01/21 00:58:06;;;;;;;11.93;7.30;;;;;;;5.36;67.53;94336.23;1801245;79;21122;-48
2021/01/21 01:00:35;;;;;;;11.18;7.20;;;;;;;5.30;67.58;94337.34;1801251;79;21422;-49
2021/01/21 01:03:09;;;;;;;22.40;11.83;;;;;;;5.29;67.56;94339.13;1801157;79;21111;-48
2021/01/21 01:05:39;;;;;;;18.05;9.40;;;;;;;5.30;67.40;94320.20;1801221;79;21138;-48
2021/01/21 01:08:07;;;;;;;7.12;5.92;;;;;;;5.39;67.06;94324.50;1801174;79;21145;-49
2021/01/21 01:10:36;;;;;;;7.62;5.40;;;;;;;5.43;66.59;94322.45;1801290;79;21844;-48
2021/01/21 01:13:07;;;;;;;7.35;5.87;;;;;;;5.49;66.30;94322.11;1799731;79;21419;-47
2021/01/21 01:15:39;;;;;;;9.25;6.85;;;;;;;5.58;65.91;94318.96;1801262;79;21135;-49
2021/01/21 01:18:07;;;;;;;8.80;6.97;;;;;;;5.62;65.62;94317.52;1801234;79;21551;-48
2021/01/21 01:20:36;;;;;;;8.35;6.47;;;;;;;5.61;65.57;94303.71;1801211;79;21142;-49
2021/01/21 01:23:05;;;;;;;8.90;7.97;;;;;;;5.64;65.45;94300.87;1801240;79;21130;-49
2021/01/21 01:25:35;;;;;;;15.35;11.63;;;;;;;5.65;64.58;94305.17;1801228;79;21519;-49
2021/01/21 01:28:03;;;;;;;7.12;6.00;;;;;;;5.75;64.58;94287.00;1801302;79;21098;-49
2021/01/21 01:30:32;;;;;;;5.72;5.12;;;;;;;5.74;64.04;94293.05;1801319;79;21066;-48
2021/01/21 01:33:01;;;;;;;7.75;7.03;;;;;;;5.72;64.12;94283.73;1801389;79;21050;-48
2021/01/21 01:35:30;;;;;;;7.75;6.95;;;;;;;5.74;64.14;94293.63;1801381;79;21059;-48
2021/01/21 01:38:00;;;;;;;5.75;5.25;;;;;;;5.78;63.95;94282.05;1801381;79;21372;-48
2021/01/21 01:40:28;;;;;;;7.22;6.50;;;;;;;5.80;63.94;94279.08;1801327;79;21122;-48
2021/01/21 01:42:57;;;;;;;6.12;5.00;;;;;;;5.85;63.48;94283.26;1801374;79;21134;-48
2021/01/21 01:45:27;;;;;;;6.45;5.85;;;;;;;5.92;63.28;94278.98;1801361;79;21135;-48
2021/01/21 01:47:56;;;;;;;5.92;5.42;;;;;;;5.98;63.19;94277.28;1801307;79;21193;-48
2021/01/21 01:50:40;;;;;;;5.87;5.30;;;;;;;6.01;63.05;94283.25;1761312;80;21503;-48
2021/01/21 01:53:08;;;;;;;11.35;9.25;;;;;;;6.07;62.97;94274.70;1753417;80;21143;-48
2021/01/21 01:55:42;;;;;;;6.45;5.78;;;;;;;6.09;62.82;94254.55;1783950;79;21135;-49
2021/01/21 01:58:30;;;;;;;6.78;6.08;;;;;;;6.11;62.16;94258.98;1783204;80;21139;-49
2021/01/21 02:01:00;;;;;;;10.10;9.10;;;;;;;6.16;62.02;94269.41;1783487;80;21084;-48
2021/01/21 02:03:30;;;;;;;6.10;5.53;;;;;;;6.24;61.91;94278.93;1784017;80;21201;-49
2021/01/21 02:06:04;;;;;;;5.78;5.28;;;;;;;6.30;61.81;94262.95;1781981;80;21099;-49
2021/01/21 02:08:33;;;;;;;9.70;6.42;;;;;;;6.34;61.88;94275.16;1783980;80;21079;-50
2021/01/21 02:11:06;;;;;;;10.88;9.25;;;;;;;6.36;61.85;94265.93;1784042;80;21655;-49
2021/01/21 02:13:45;;;;;;;8.63;7.47;;;;;;;6.38;61.90;94271.14;1753505;80;21068;-49
2021/01/21 02:16:37;;;;;;;38.38;27.52;;;;;;;6.36;61.91;94264.56;1784060;80;21361;-49
2021/01/21 02:19:11;;;;;;;19.50;16.80;;;;;;;6.35;62.00;94269.86;1753230;80;21178;-49
2021/01/21 02:22:03;;;;;;;11.57;10.38;;;;;;;6.35;61.99;94276.69;1764934;80;21146;-49
2021/01/21 02:25:02;;;;;;;9.63;7.33;;;;;;;6.34;62.04;94264.98;1784018;80;21477;-49
2021/01/21 02:28:10;;;;;;;25.70;14.75;;;;;;;6.36;62.08;94258.48;1776796;80;21087;-49
2021/01/21 02:31:05;;;;;;;34.15;17.57;;;;;;;6.37;62.07;94255.92;1783466;80;21206;-49
2021/01/21 02:33:57;;;;;;;51.98;23.67;;;;;;;6.40;61.82;94254.30;1772278;81;21174;-49
2021/01/21 02:36:40;;;;;;;27.10;14.15;;;;;;;6.43;61.65;94251.48;1774646;80;21117;-48
2021/01/21 02:39:23;;;;;;;10.35;7.10;;;;;;;6.51;61.60;94253.42;1842230;78;22666;-48
2021/01/21 02:41:53;;;;;;;25.75;13.08;;;;;;;6.45;61.48;94247.72;1817005;78;21085;-48
2021/01/21 02:44:21;;;;;;;29.37;15.08;;;;;;;6.47;61.45;94240.44;1817402;78;21357;-48
2021/01/21 02:46:50;;;;;;;19.02;11.57;;;;;;;6.41;61.17;94256.61;1784093;79;21477;-49
2021/01/21 02:49:18;;;;;;;12.20;8.63;;;;;;;6.39;61.24;94250.82;1783572;79;21065;-48
2021/01/21 02:52:10;;;;;;;13.15;9.15;;;;;;;6.41;61.11;94257.20;1817412;78;21144;-48
2021/01/21 02:55:20;;;;;;;5.95;4.85;;;;;;;6.44;61.16;94264.53;1817393;79;21786;-49
2021/01/21 02:58:08;;;;;;;8.65;6.03;;;;;;;6.47;60.78;94248.63;1816746;79;22267;-48
2021/01/21 03:00:36;;;;;;;15.95;9.90;;;;;;;6.55;60.43;94247.25;1817459;78;21538;-49
2021/01/21 03:03:12;;;;;;;8.48;7.03;;;;;;;6.55;59.97;94249.37;1817303;79;21156;-49
2021/01/21 03:05:42;;;;;;;10.00;7.75;;;;;;;6.56;59.96;94235.88;1817389;79;21466;-48
2021/01/21 03:08:11;;;;;;;13.43;9.53;;;;;;;6.50;60.11;94230.78;1817382;79;21069;-49
2021/01/21 03:10:41;;;;;;;11.80;8.43;;;;;;;6.44;60.17;94250.87;1817398;79;21258;-48
2021/01/21 03:13:10;;;;;;;8.88;6.05;;;;;;;6.38;60.31;94244.41;1783459;79;21078;-49
2021/01/21 03:15:40;;;;;;;7.75;6.28;;;;;;;6.30;60.41;94243.83;1816402;79;21100;-48
2021/01/21 03:18:11;;;;;;;6.00;5.40;;;;;;;6.31;60.52;94256.91;1816977;79;21048;-48
2021/01/21 03:20:39;;;;;;;16.48;10.82;;;;;;;6.30;60.51;94240.36;1817390;78;21062;-48
2021/01/21 03:23:09;;;;;;;13.10;9.95;;;;;;;6.35;60.46;94239.81;1817385;79;21399;-49
2021/01/21 03:25:39;;;;;;;14.68;11.15;;;;;;;6.40;60.44;94235.18;1816536;79;21093;-49
2021/01/21 03:28:10;;;;;;;14.75;10.10;;;;;;;6.39;60.34;94229.55;1817359;79;21148;-49
2021/01/21 03:30:38;;;;;;;9.98;7.87;;;;;;;6.33;60.45;94232.66;1791717;79;21072;-49
2021/01/21 03:33:07;;;;;;;16.07;10.70;;;;;;;6.25;60.44;94223.89;1785198;80;21132;-48
2021/01/21 03:35:40;;;;;;;21.25;15.78;;;;;;;6.20;60.67;94243.54;1783478;80;21313;-49
2021/01/21 03:38:10;;;;;;;15.68;11.18;;;;;;;6.12;60.68;94238.70;1788254;80;21092;-48
2021/01/21 03:40:40;;;;;;;10.20;8.75;;;;;;;6.06;60.76;94232.20;1791610;80;21116;-49
2021/01/21 03:43:08;;;;;;;8.30;7.05;;;;;;;5.97;61.07;94223.88;1793790;80;21176;-48
2021/01/21 03:45:51;;;;;;;9.15;8.15;;;;;;;5.95;61.09;94241.30;1791812;80;21777;-51
2021/01/21 03:48:20;;;;;;;7.47;6.45;;;;;;;5.90;61.26;94233.02;1793778;80;21352;-48
2021/01/21 03:51:03;;;;;;;7.75;6.45;;;;;;;5.84;61.36;94242.16;1742799;80;21093;-48
2021/01/21 03:53:31;;;;;;;19.15;13.30;;;;;;;5.83;61.71;94222.88;1793212;80;21057;-49
2021/01/21 03:56:03;;;;;;;8.45;7.25;;;;;;;5.84;61.92;94229.29;1779812;80;21704;-48
2021/01/21 03:58:32;;;;;;;7.37;6.33;;;;;;;5.88;62.25;94230.54;1764505;80;21068;-48
2021/01/21 04:01:03;;;;;;;5.47;4.87;;;;;;;6.07;62.25;94215.99;1792265;80;21203;-48
2021/01/21 04:03:32;;;;;;;5.22;4.70;;;;;;;6.25;61.86;94213.55;1793186;79;21081;-48
2021/01/21 04:06:04;;;;;;;6.55;4.97;;;;;;;6.34;61.56;94219.16;1793292;80;21171;-48
2021/01/21 04:08:34;;;;;;;5.15;4.72;;;;;;;6.37;61.33;94213.58;1793261;80;21168;-48
2021/01/21 04:11:05;;;;;;;7.45;6.53;;;;;;;6.41;61.33;94212.91;1790151;80;21664;-48
2021/01/21 04:13:35;;;;;;;6.05;5.47;;;;;;;6.40;61.10;94216.06;1792421;80;21210;-48
2021/01/21 04:16:06;;;;;;;30.92;21.93;;;;;;;6.35;61.20;94209.77;1792171;80;21529;-48
2021/01/21 04:18:34;;;;;;;9.45;8.40;;;;;;;6.30;61.46;94219.25;1793167;80;21132;-48
2021/01/21 04:21:04;;;;;;;12.85;10.55;;;;;;;6.26;61.63;94216.44;1793074;80;21199;-49
2021/01/21 04:23:35;;;;;;;8.10;6.40;;;;;;;6.24;61.87;94216.89;1793239;80;21061;-48
2021/01/21 04:26:06;;;;;;;20.80;15.20;;;;;;;6.24;61.95;94217.48;1792193;79;21381;-48
2021/01/21 04:28:38;;;;;;;26.73;16.70;;;;;;;6.26;62.01;94212.34;1793258;80;21100;-49
2021/01/21 04:31:06;;;;;;;15.75;11.53;;;;;;;6.28;61.98;94220.88;1793245;78;21128;-48
2021/01/21 04:33:35;;;;;;;27.52;16.87;;;;;;;6.30;61.92;94214.41;1793190;79;21132;-48
2021/01/21 04:36:06;;;;;;;28.98;18.00;;;;;;;6.29;61.71;94219.09;1793229;80;21647;-49
2021/01/21 04:38:36;;;;;;;12.13;9.10;;;;;;;6.27;61.61;94215.25;1789132;79;21152;-49
2021/01/21 04:41:06;;;;;;;16.52;9.15;;;;;;;6.15;61.78;94214.01;1784226;80;21164;-48
2021/01/21 04:43:49;;;;;;;17.63;12.87;;;;;;;6.04;61.95;94216.27;1784835;80;21109;-48
2021/01/21 04:46:25;;;;;;;21.07;12.58;;;;;;;5.92;62.40;94221.66;1780689;80;21859;-49
2021/01/21 04:48:54;;;;;;;13.00;8.90;;;;;;;5.90;62.78;94219.38;1784593;80;21053;-48
2021/01/21 04:51:23;;;;;;;21.70;16.15;;;;;;;5.89;62.97;94226.03;1784578;80;21370;-49
2021/01/21 04:53:58;;;;;;;13.65;10.60;;;;;;;5.97;63.07;94236.92;1782141;80;21156;-49
2021/01/21 04:56:40;;;;;;;10.85;9.35;;;;;;;6.07;62.87;94229.64;1781208;80;21120;-48
2021/01/21 04:59:27;;;;;;;30.08;21.87;;;;;;;6.11;62.60;94220.17;1784521;80;21128;-49
2021/01/21 05:01:59;;;;;;;19.82;14.73;;;;;;;6.22;62.35;94224.75;1751340;80;21141;-48
2021/01/21 05:04:27;;;;;;;28.25;25.35;;;;;;;6.32;62.02;94227.03;1784550;80;21404;-50
2021/01/21 05:07:03;;;;;;;9.15;8.08;;;;;;;6.41;61.78;94225.78;1782957;80;21142;-48
2021/01/21 05:09:32;;;;;;;15.70;11.22;;;;;;;6.45;61.32;94221.77;1784531;80;21066;-48
2021/01/21 05:12:02;;;;;;;7.72;6.80;;;;;;;6.49;61.18;94231.98;1784510;80;21073;-49
2021/01/21 05:14:32;;;;;;;16.27;12.13;;;;;;;6.52;61.00;94222.16;1772144;80;21068;-47
2021/01/21 05:17:06;;;;;;;10.48;7.45;;;;;;;6.54;60.80;94232.06;1720219;80;22797;-49
2021/01/21 05:19:52;;;;;;;9.80;8.28;;;;;;;6.48;60.75;94234.55;1784467;80;21148;-48
2021/01/21 05:22:39;;;;;;;8.23;6.97;;;;;;;6.49;60.82;94235.33;1784513;80;21120;-49
2021/01/21 05:25:27;;;;;;;12.90;11.28;;;;;;;6.55;60.68;94236.33;1784540;80;21129;-49
2021/01/21 05:28:04;;;;;;;7.28;6.60;;;;;;;6.52;60.62;94229.00;1720038;80;21057;-49
2021/01/21 05:30:52;;;;;;;;;;;;;;;6.52;60.44;94231.11;1759136;80;21394;-49
2021/01/21 05:33:25;;;;;;;22.98;12.18;;;;;;;6.55;60.29;94232.22;1782347;80;20242;-49
2021/01/21 05:35:55;;;;;;;17.65;13.00;;;;;;;6.56;60.33;94242.70;1752671;80;21125;-49
2021/01/21 05:38:24;;;;;;;11.93;8.20;;;;;;;6.57;60.34;94239.38;1750192;80;21148;-49
2021/01/21 05:40:54;;;;;;;8.53;7.67;;;;;;;6.57;60.21;94244.84;1755949;80;21175;-49
2021/01/21 05:43:41;;;;;;;10.70;8.58;;;;;;;6.55;60.28;94254.08;1777953;80;21219;-49
2021/01/21 05:46:11;;;;;;;15.25;10.18;;;;;;;6.57;60.30;94247.58;1726728;80;21093;-49
2021/01/21 05:48:40;;;;;;;17.27;10.95;;;;;;;6.58;60.42;94242.28;1779822;80;21053;-49
2021/01/21 05:51:09;;;;;;;8.40;6.67;;;;;;;6.55;60.35;94252.10;1751473;80;21062;-50
2021/01/21 05:53:39;;;;;;;9.43;7.12;;;;;;;6.60;60.03;94248.08;1779852;80;21145;-50
2021/01/21 05:56:10;;;;;;;15.18;11.55;;;;;;;6.64;60.06;94243.27;1779212;80;22210;-49
2021/01/21 05:58:40;;;;;;;24.20;17.10;;;;;;;6.58;60.27;94251.84;1775489;80;21076;-49
2021/01/21 06:01:09;;;;;;;18.85;13.70;;;;;;;6.60;60.49;94252.17;1779785;80;21085;-49
2021/01/21 06:03:40;;;;;;;16.67;12.65;;;;;;;6.63;60.46;94253.45;1728705;80;21077;-50
2021/01/21 06:06:13;;;;;;;8.63;6.90;;;;;;;6.61;60.20;94245.52;1751531;80;21022;-48
2021/01/21 06:08:42;;;;;;;11.20;8.03;;;;;;;6.63;59.61;94250.72;1779881;80;22291;-48
2021/01/21 06:11:12;;;;;;;9.05;7.00;;;;;;;6.76;59.70;94253.47;1778456;80;21100;-50
2021/01/21 06:13:47;;;;;;;8.23;6.90;;;;;;;6.81;59.53;94250.20;1779853;80;21494;-49
2021/01/21 06:16:16;;;;;;;7.15;6.45;;;;;;;6.86;59.39;94241.48;1779797;80;21133;-48
2021/01/21 06:18:45;;;;;;;10.95;8.43;;;;;;;6.90;59.16;94244.25;1779698;80;21176;-49
2021/01/21 06:21:25;;;;;;;21.57;14.35;;;;;;;6.94;59.17;94244.94;1777246;80;21374;-50
2021/01/21 06:24:19;;;;;;;15.23;11.28;;;;;;;6.99;59.11;94234.82;1873604;75;22064;-49
2021/01/21 06:26:51;;;;;;;;;;;;;;;6.96;58.88;94239.02;1843476;78;21117;-50
2021/01/21 06:29:20;;;;;;;20.43;11.30;;;;;;;7.01;58.55;94234.36;1833810;78;20759;-49
2021/01/21 06:31:50;;;;;;;40.70;17.37;;;;;;;7.03;58.57;94236.09;1808452;78;21091;-49
2021/01/21 06:34:24;;;;;;;89.70;33.78;;;;;;;7.01;58.63;94243.94;1804676;78;21191;-50
2021/01/21 06:36:58;;;;;;;26.65;14.63;;;;;;;6.96;58.77;94239.02;1744888;80;21574;-50
2021/01/21 06:39:40;;;;;;;13.62;8.75;;;;;;;6.88;58.61;94243.17;1770414;80;21066;-49
2021/01/21 06:42:09;;;;;;;14.95;11.68;;;;;;;6.88;58.39;94234.97;1730274;80;22369;-50
2021/01/21 06:44:38;;;;;;;15.32;10.75;;;;;;;6.94;58.34;94225.02;1760593;80;21075;-48
2021/01/21 06:47:07;;;;;;;10.72;8.55;;;;;;;6.97;58.07;94229.61;1736240;80;21086;-50
2021/01/21 06:49:37;;;;;;;8.10;6.75;;;;;;;7.04;57.82;94229.41;1777083;80;21512;-51
2021/01/21 06:52:05;;;;;;;21.20;13.85;;;;;;;7.09;57.57;94238.59;1735821;81;21140;-49
2021/01/21 06:54:34;;;;;;;21.87;13.78;;;;;;;7.09;57.58;94243.28;1754391;81;21158;-50
2021/01/21 06:57:04;;;;;;;25.08;15.90;;;;;;;7.05;57.71;94239.90;1684799;82;21125;-50
2021/01/21 06:59:52;;;;;;;42.70;21.40;;;;;;;7.00;57.96;94232.25;1715996;82;21145;-51
2021/01/21 07:02:48;;;;;;;27.32;16.02;;;;;;;7.02;58.03;94239.41;1747203;82;21254;-49
2021/01/21 07:05:22;;;;;;;15.43;11.28;;;;;;;7.04;57.98;94236.25;1721610;81;21162;-50
2021/01/21 07:07:56;;;;;;;;;;;;;;;7.08;58.00;94235.70;1749720;82;21205;-50
2021/01/21 07:10:46;;;;;;;8.25;6.92;;;;;;;7.18;57.62;94235.96;1736097;80;20292;-50
2021/01/21 07:13:20;;;;;;;14.05;6.60;;;;;;;7.32;57.18;94240.25;1734536;82;21178;-51
2021/01/21 07:16:03;;;;;;;10.58;6.80;;;;;;;7.49;56.64;94236.95;1734986;80;21082;-50
2021/01/21 07:18:36;;;;;;;7.87;7.08;;;;;;;7.63;55.96;94240.61;1731688;81;21125;-51
2021/01/21 07:21:13;;;;;;;;;;;;;;;7.77;55.81;94238.78;1739326;80;21205;-50
2021/01/21 07:23:56;;;;;;;22.15;15.95;;;;;;;7.89;55.39;94240.70;1736367;81;20226;-52
2021/01/21 07:26:39;;;;;;;25.40;18.07;;;;;;;8.00;55.45;94245.23;1717990;82;27318;-51
2021/01/21 07:29:15;;;;;;;12.82;10.72;;;;;;;8.09;55.25;94234.34;1751710;81;21304;-52
2021/01/21 07:32:01;;;;;;;10.03;7.72;;;;;;;8.19;55.06;94238.74;1732289;81;21125;-52
2021/01/21 07:34:42;;;;;;;14.40;11.90;;;;;;;8.27;54.90;94229.67;1751419;80;21476;-51
2021/01/21 07:37:20;;;;;;;10.65;8.43;;;;;;;8.37;54.87;94237.52;1761176;80;21651;-50
2021/01/21 07:40:04;;;;;;;12.98;7.35;;;;;;;8.47;53.91;94230.88;1754709;80;21075;-50
2021/01/21 07:42:41;;;;;;;7.50;6.67;;;;;;;8.58;53.85;94236.77;1758586;80;21526;-52
2021/01/21 07:45:22;;;;;;;8.18;7.28;;;;;;;8.67;53.45;94233.32;1762260;80;21934;-51
2021/01/21 07:47:52;;;;;;;6.80;5.60;;;;;;;8.74;52.84;94229.72;1744332;81;22154;-50
2021/01/21 07:50:32;;;;;;;8.60;6.55;;;;;;;8.86;52.59;94225.36;1779582;80;21506;-54
2021/01/21 07:53:06;;;;;;;10.90;7.03;;;;;;;8.97;52.37;94227.86;1747815;80;21172;-52
2021/01/21 07:55:41;;;;;;;8.55;7.10;;;;;;;9.08;51.88;94223.50;1750353;80;21689;-55
2021/01/21 08:01:09;;;;;;;5.30;4.60;;;;;;;9.33;50.67;94214.31;1878483;76;22502;-53
2021/01/21 08:03:41;;;;;;;43.10;37.75;;;;;;;9.32;49.98;94218.28;1830930;77;21150;-52
2021/01/21 08:06:17;;;;;;;15.50;10.28;;;;;;;9.35;49.92;94214.63;1821252;77;22249;-52
2021/01/21 08:08:47;;;;;;;9.13;6.53;;;;;;;9.33;50.14;94225.30;1821085;77;21198;-53
2021/01/21 08:11:20;;;;;;;14.13;7.75;;;;;;;9.31;50.25;94223.61;1828795;77;21115;-55
2021/01/21 08:13:47;;;;;;;;;;;;;;;9.38;50.39;94224.11;1833519;77;21087;-56
2021/01/21 08:16:17;;;;;;;5.90;4.78;;;;;;;9.51;49.35;94215.76;1832360;77;20281;-52
2021/01/21 08:18:46;;;;;;;10.03;7.35;;;;;;;9.61;49.22;94207.72;1821152;78;21401;-53
2021/01/21 08:21:28;;;;;;;7.85;6.15;;;;;;;9.71;48.95;94217.50;1848138;77;20973;-56
2021/01/21 08:24:08;;;;;;;5.78;4.90;;;;;;;9.82;48.88;94224.70;1838003;77;22184;-51
2021/01/21 08:26:36;;;;;;;7.03;4.95;;;;;;;9.90;49.00;94213.56;1822986;77;21135;-51
2021/01/21 08:29:12;;;;;;;10.32;6.95;;;;;;;9.99;48.76;94217.72;1820777;77;21156;-52
2021/01/21 08:31:47;;;;;;;5.85;4.47;;;;;;;10.11;48.73;94230.58;1820113;78;22204;-51
2021/01/21 08:34:19;;;;;;;4.42;4.03;;;;;;;10.19;48.08;94219.45;1816484;77;21646;-56
2021/01/21 08:36:47;;;;;;;7.00;4.87;;;;;;;10.24;46.86;94214.12;1838795;77;21154;-55
2021/01/21 08:39:15;;;;;;;15.83;9.85;;;;;;;10.34;46.25;94224.50;1845300;77;21174;-56
2021/01/21 08:41:44;;;;;;;14.45;9.45;;;;;;;10.34;46.01;94225.25;1827539;77;21055;-57
2021/01/21 08:44:18;;;;;;;19.10;12.45;;;;;;;10.35;46.71;94219.91;1806017;77;21361;-53
2021/01/21 08:46:59;;;;;;;6.17;5.58;;;;;;;10.31;45.83;94225.42;1798582;79;21650;-55
2021/01/21 08:49:34;;;;;;;11.15;7.37;;;;;;;10.36;45.78;94222.06;1822788;77;21657;-51
2021/01/21 08:52:10;;;;;;;24.07;16.50;;;;;;;10.46;46.24;94223.57;1836593;77;21047;-51
2021/01/21 08:54:53;;;;;;;91.57;34.73;;;;;;;10.56;46.16;94229.23;1836550;77;21134;-53
2021/01/21 08:57:24;;;;;;;55.38;29.12;;;;;;;10.62;45.79;94212.27;1840980;77;21201;-49
2021/01/21 08:59:53;;;;;;;17.85;12.45;;;;;;;10.65;45.72;94215.46;1844771;77;21487;-52
2021/01/21 09:02:41;;;;;;;9.63;8.13;;;;;;;10.67;45.47;94215.77;1791226;77;21154;-52
2021/01/21 09:05:13;;;;;;;9.53;7.05;;;;;;;10.73;45.48;94211.34;1818497;77;21052;-50
2021/01/21 09:07:42;;;;;;;5.28;4.80;;;;;;;10.83;45.33;94216.97;1822302;77;21132;-51
2021/01/21 09:10:11;;;;;;;10.53;7.33;;;;;;;10.99;45.01;94213.88;1825429;77;21181;-52
2021/01/21 09:12:40;;;;;;;8.30;6.78;;;;;;;11.23;44.80;94206.49;1834898;77;21236;-52
2021/01/21 09:15:12;;;;;;;15.80;11.85;;;;;;;11.39;43.97;94204.73;1829615;77;21172;-55
2021/01/21 09:17:41;;;;;;;49.10;38.10;;;;;;;11.41;43.69;94201.52;1818250;77;21192;-52
2021/01/21 09:20:24;;;;;;;6.25;5.65;;;;;;;11.33;43.85;94210.73;1826712;77;21194;-55
2021/01/21 09:22:56;;;;;;;26.52;22.02;;;;;;;11.24;43.69;94202.52;1831256;77;22281;-53
2021/01/21 09:25:27;;;;;;;14.38;12.88;;;;;;;11.21;43.52;94196.53;1828173;77;21189;-53
2021/01/21 09:27:56;;;;;;;4.33;3.85;;;;;;;11.25;44.05;94198.53;1828676;77;21470;-51
2021/01/21 09:30:24;;;;;;;6.10;3.75;;;;;;;11.29;43.02;94188.11;1814460;77;21585;-52
2021/01/21 09:32:54;;;;;;;5.15;3.67;;;;;;;11.35;43.10;94188.99;1847323;77;21051;-53
2021/01/21 09:35:24;;;;;;;4.67;3.87;;;;;;;11.48;42.96;94203.33;1825430;77;21171;-53
2021/01/21 09:37:57;;;;;;;4.17;3.10;;;;;;;11.55;42.47;94183.70;1843832;77;21076;-51
2021/01/21 09:40:31;;;;;;;9.95;7.35;;;;;;;11.63;41.62;94178.04;1792864;79;21190;-56
2021/01/21 09:43:01;;;;;;;8.50;6.60;;;;;;;11.90;41.35;94187.52;1750450;80;21159;-55
2021/01/21 09:45:30;;;;;;;5.45;3.58;;;;;;;12.21;41.03;94201.72;1782005;80;21115;-57
2021/01/21 09:47:58;;;;;;;2.67;2.35;;;;;;;12.23;40.64;94193.73;1762616;81;21218;-50
2021/01/21 09:50:29;;;;;;;4.12;3.62;;;;;;;12.08;40.30;94183.27;1772565;80;21193;-51
2021/01/21 09:52:58;;;;;;;3.95;3.58;;;;;;;12.02;40.70;94182.39;1778951;80;21221;-51
2021/01/21 09:55:29;;;;;;;4.60;3.75;;;;;;;11.96;41.14;94172.48;1786415;79;21155;-52
2021/01/21 09:57:58;;;;;;;3.50;3.10;;;;;;;12.00;41.32;94186.24;1771692;80;21114;-55
2021/01/21 10:00:29;;;;;;;2.80;2.50;;;;;;;12.17;41.38;94184.59;1766060;79;21374;-52
2021/01/21 10:02:59;;;;;;;5.50;3.30;;;;;;;12.34;40.60;94191.21;1751629;80;21127;-52
2021/01/21 10:05:28;;;;;;;5.40;3.52;;;;;;;12.53;40.98;94182.30;1739359;80;21163;-52
2021/01/21 10:07:56;;;;;;;3.72;3.17;;;;;;;12.56;40.40;94188.88;1772324;80;21626;-52
2021/01/21 10:10:25;;;;;;;3.40;3.10;;;;;;;12.51;40.24;94180.49;1766909;80;21095;-52
2021/01/21 10:12:54;;;;;;;2.72;2.45;;;;;;;12.40;40.63;94179.66;1753189;80;22356;-54
2021/01/21 10:15:23;;;;;;;4.28;3.87;;;;;;;12.33;40.31;94185.55;1720644;81;21082;-50
2021/01/21 10:17:52;;;;;;;3.98;3.62;;;;;;;12.26;40.55;94176.24;1724297;83;21691;-52
2021/01/21 10:20:21;;;;;;;5.20;3.17;;;;;;;12.39;40.85;94183.66;1748341;80;21765;-52
2021/01/21 10:22:50;;;;;;;3.27;2.98;;;;;;;12.65;40.91;94194.31;1755390;81;21141;-51
2021/01/21 10:25:18;;;;;;;3.35;2.33;;;;;;;12.69;40.21;94184.62;1756158;80;21462;-54
2021/01/21 10:27:47;;;;;;;4.22;3.45;;;;;;;12.69;40.55;94183.88;1756607;81;21247;-51
2021/01/21 10:30:18;;;;;;;9.55;3.02;;;;;;;12.71;40.89;94188.30;1717410;81;21206;-52
2021/01/21 10:32:46;;;;;;;3.37;3.08;;;;;;;12.80;40.26;94185.44;1758130;80;21226;-50
2021/01/21 10:35:15;;;;;;;3.05;2.77;;;;;;;12.85;40.04;94169.58;1738438;80;21140;-52
2021/01/21 10:37:43;;;;;;;4.30;2.75;;;;;;;12.83;39.75;94180.34;1719108;81;22925;-52
2021/01/21 10:40:14;;;;;;;3.65;3.05;;;;;;;12.89;39.47;94186.11;1756241;80;21827;-51
2021/01/21 10:42:42;;;;;;;9.50;3.40;;;;;;;13.20;39.57;94162.18;1759497;80;21165;-54
2021/01/21 10:45:12;;;;;;;3.67;3.20;;;;;;;13.48;39.11;94169.67;1725068;83;21190;-51
2021/01/21 10:47:40;;;;;;;5.03;2.30;;;;;;;13.50;37.99;94179.65;1730196;81;21191;-50
2021/01/21 10:50:12;;;;;;;2.42;1.98;;;;;;;13.56;37.80;94172.80;1758742;80;21389;-50
2021/01/21 10:52:40;;;;;;;12.15;3.12;;;;;;;13.88;37.21;94180.06;1730754;81;21243;-49
2021/01/21 10:55:11;;;;;;;20.80;4.70;;;;;;;13.94;37.29;94167.06;1731326;81;21556;-52
2021/01/21 10:57:40;;;;;;;4.12;2.83;;;;;;;13.94;37.41;94172.59;1748762;80;21130;-52
2021/01/21 11:00:11;;;;;;;4.70;3.25;;;;;;;14.15;36.89;94146.50;1728991;81;21649;-52
2021/01/21 11:02:44;;;;;;;9.20;3.30;;;;;;;14.45;36.10;94135.56;1721555;83;21377;-53
2021/01/21 11:05:21;;;;;;;;;;;;;;;14.59;35.16;94140.25;1736534;81;22250;-50
2021/01/21 11:07:59;;;;;;;8.25;4.65;;;;;;;14.52;35.22;94137.92;1789937;80;20220;-51
2021/01/21 11:10:37;;;;;;;8.20;5.83;;;;;;;14.48;35.26;94131.06;1758483;80;21173;-50
2021/01/21 11:13:06;;;;;;;7.03;4.12;;;;;;;14.42;36.03;94129.48;1759181;81;21586;-50
2021/01/21 11:15:35;;;;;;;4.28;2.95;;;;;;;14.59;35.04;94108.41;1699890;84;22327;-52
2021/01/21 11:18:03;;;;;;;2.75;2.08;;;;;;;14.67;34.69;94128.88;1730821;82;21626;-52
2021/01/21 11:20:34;;;;;;;11.78;2.92;;;;;;;14.51;35.05;94118.41;1780193;80;21239;-51
2021/01/21 11:23:04;;;;;;;6.25;4.40;;;;;;;14.48;35.33;94108.29;1789139;80;21213;-53
2021/01/21 11:25:32;;;;;;;12.85;5.33;;;;;;;14.71;34.95;94114.21;1789529;80;21260;-53
2021/01/21 11:28:04;;;;;;;16.75;5.58;;;;;;;14.94;34.65;94109.63;1730087;82;22260;-54
2021/01/21 11:30:32;;;;;;;9.78;7.55;;;;;;;15.05;34.59;94104.96;1765662;80;21154;-51
2021/01/21 11:33:01;;;;;;;10.10;4.10;;;;;;;15.17;34.29;94107.20;1779481;79;21145;-52
2021/01/21 11:35:31;;;;;;;5.72;3.70;;;;;;;15.11;33.82;94091.12;1728123;83;21147;-53
2021/01/21 11:37:59;;;;;;;20.48;18.37;;;;;;;14.92;34.66;94093.51;1724867;83;21179;-52
2021/01/21 11:40:29;;;;;;;29.42;19.10;;;;;;;15.17;34.29;94091.31;1700030;84;21392;-55
2021/01/21 11:42:58;;;;;;;37.40;21.90;;;;;;;15.74;33.85;94097.53;1700143;84;21138;-51
2021/01/21 11:45:26;;;;;;;22.62;13.70;;;;;;;16.25;32.86;94086.17;1703592;83;21183;-51
2021/01/21 11:47:55;;;;;;;17.73;10.23;;;;;;;16.51;31.78;94088.94;1699915;83;21095;-56
2021/01/21 11:50:23;;;;;;;9.75;5.40;;;;;;;16.26;32.51;94083.53;1720289;83;21083;-55
2021/01/21 11:52:55;;;;;;;15.03;7.78;;;;;;;15.95;32.48;94078.09;1712284;83;21204;-57
2021/01/21 11:55:24;;;;;;;49.85;32.80;;;;;;;15.73;32.51;94078.63;1721838;83;21671;-57
2021/01/21 11:57:53;;;;;;;9.93;3.70;;;;;;;15.35;32.98;94070.83;1721021;83;21639;-60
2021/01/21 12:00:27;;;;;;;9.58;3.05;;;;;;;14.79;33.63;94073.00;1706659;82;21373;-51
2021/01/21 12:02:56;;;;;;;17.07;3.72;;;;;;;14.41;34.73;94076.77;1756933;81;21628;-52